Time;durP1;ratioP1;P1;durP2;ratioP2;P2;SDS_P1;SDS_P2;PMS_P1;PMS_P2;Temp;Humidity;BMP_temperature;BMP_pressure;BME280_temperature;BME280_humidity;BME280_pressure;Samples;Min_cycle;Max_cycle;Signal;HPM_P1;HPM_P2
2023/08/06 00:02:21;;;;;;;;;;;26.60;69.90;;;;;;5179210;27;20037;-34
2023/08/06 00:04:47;;;;;;;;;;;26.60;70.00;;;;;;5171934;27;19958;-34
2023/08/06 00:07:13;;;;;;;;;;;26.60;70.30;;;;;;5168140;27;19922;-34
2023/08/06 00:09:39;;;;;;;;;;;26.60;70.30;;;;;;5166649;27;19923;-34
2023/08/06 00:12:05;;;;;;;;;;;26.60;70.50;;;;;;5169950;27;19915;-34
2023/08/06 00:14:31;;;;;;;;;;;26.60;70.60;;;;;;5173593;27;19922;-33
2023/08/06 00:16:57;;;;;;;;;;;26.70;71.50;;;;;;5166220;27;20283;-34
2023/08/06 00:19:22;;;;;;;;;;;26.70;70.90;;;;;;5169471;27;19942;-34
2023/08/06 00:21:48;;;;;;;;;;;26.70;71.00;;;;;;5181661;27;20005;-34
2023/08/06 00:24:14;;;;;;;;;;;26.70;71.20;;;;;;5175310;27;19912;-34
2023/08/06 00:26:41;;;;;;;;;;;26.70;71.30;;;;;;5167915;27;19911;-34
2023/08/06 00:29:07;;;;;;;;;;;26.70;71.50;;;;;;5174513;27;19915;-34
2023/08/06 00:31:33;;;;;;;;;;;26.70;71.50;;;;;;5178640;27;20740;-34
2023/08/06 00:33:58;;;;;;;;;;;26.70;71.60;;;;;;5166395;27;19919;-34
2023/08/06 00:36:24;;;;;;;;;;;26.70;71.60;;;;;;5166325;27;19919;-34
2023/08/06 00:38:50;;;;;;;;;;;26.80;71.80;;;;;;5182616;27;19922;-33
2023/08/06 00:41:16;;;;;;;;;;;26.80;71.80;;;;;;5175129;27;20001;-34
2023/08/06 00:43:42;;;;;;;;;;;26.70;71.70;;;;;;5166428;27;19967;-34
2023/08/06 00:46:08;;;;;;;;;;;26.80;71.80;;;;;;5173970;27;19915;-34
2023/08/06 00:48:34;;;;;;;;;;;26.80;71.80;;;;;;5181361;27;19915;-34
2023/08/06 00:51:00;;;;;;;;;;;26.80;71.90;;;;;;5170277;27;20653;-34
2023/08/06 00:53:26;;;;;;;;;;;26.80;71.90;;;;;;5174150;27;20014;-34
2023/08/06 00:55:52;;;;;;;;;;;26.80;72.00;;;;;;5166848;27;19922;-34
2023/08/06 00:58:17;;;;;;;;;;;26.80;72.00;;;;;;5181829;27;19923;-34
2023/08/06 01:00:43;;;;;;;;;;;26.80;72.10;;;;;;5179659;27;19931;-33
2023/08/06 01:03:09;;;;;;;;;;;26.80;72.20;;;;;;5171491;27;19915;-38
2023/08/06 01:05:35;;;;;;;;;;;26.80;72.20;;;;;;5183915;27;20021;-33
2023/08/06 01:08:12;;;;;;;;;;;26.80;72.20;;;;;;5178440;27;19915;-33
2023/08/06 01:11:14;;;;;;;;;;;26.80;72.20;;;;;;5147773;27;19915;-33
2023/08/06 01:13:46;;;;;;;;;;;26.80;72.20;;;;;;5100962;28;19916;-34
2023/08/06 01:16:12;;;;;;;;;;;26.80;72.30;;;;;;5100833;28;19958;-34
2023/08/06 01:18:39;;;;;;;;;;;26.80;72.20;;;;;;5100770;28;19924;-34
2023/08/06 01:21:04;;;;;;;;;;;26.80;72.20;;;;;;5097185;28;19913;-34
2023/08/06 01:23:30;;;;;;;;;;;26.80;72.20;;;;;;5100976;28;20058;-34
2023/08/06 01:26:16;;;;;;;;;;;26.80;72.20;;;;;;5101038;28;19912;-34
2023/08/06 01:28:44;;;;;;;;;;;26.80;72.20;;;;;;5014827;28;20069;-34
2023/08/06 01:31:11;;;;;;;;;;;26.90;72.40;;;;;;5004299;28;19913;-34
2023/08/06 01:33:36;;;;;;;;;;;26.80;72.30;;;;;;5020601;28;19917;-34
2023/08/06 01:36:02;;;;;;;;;;;26.80;72.30;;;;;;5020524;28;19932;-33
2023/08/06 01:38:28;;;;;;;;;;;26.90;72.60;;;;;;5020231;28;19932;-34
2023/08/06 01:40:54;;;;;;;;;;;26.90;72.50;;;;;;5020747;28;19925;-34
2023/08/06 01:43:20;;;;;;;;;;;26.80;72.40;;;;;;5020577;28;21709;-34
2023/08/06 01:45:46;;;;;;;;;;;26.80;72.40;;;;;;5019882;28;19913;-34
2023/08/06 01:48:12;;;;;;;;;;;26.90;72.50;;;;;;5064760;28;19934;-34
2023/08/06 01:50:38;;;;;;;;;;;26.90;72.60;;;;;;5085854;28;19918;-34
2023/08/06 01:53:03;;;;;;;;;;;26.90;72.60;;;;;;5086086;28;19923;-34
2023/08/06 01:55:30;;;;;;;;;;;26.90;72.60;;;;;;5085292;28;19913;-34
2023/08/06 01:57:56;;;;;;;;;;;26.90;72.60;;;;;;5091403;28;19999;-33
2023/08/06 02:00:22;;;;;;;;;;;26.90;72.60;;;;;;5095136;28;19951;-34
2023/08/06 02:02:48;;;;;;;;;;;26.90;72.60;;;;;;5094735;28;19916;-34
2023/08/06 02:05:14;;;;;;;;;;;26.90;72.60;;;;;;5108470;27;19911;-34
2023/08/06 02:07:39;;;;;;;;;;;26.90;72.60;;;;;;5178399;27;20375;-34
2023/08/06 02:10:06;;;;;;;;;;;26.80;72.60;;;;;;5184240;27;19917;-34
2023/08/06 02:12:31;;;;;;;;;;;26.90;72.60;;;;;;5180277;27;19922;-34
2023/08/06 02:14:57;;;;;;;;;;;26.90;72.60;;;;;;5178901;27;19919;-33
2023/08/06 02:17:23;;;;;;;;;;;26.90;72.60;;;;;;5177574;27;19939;-34
2023/08/06 02:19:49;;;;;;;;;;;26.90;72.60;;;;;;5182572;27;20355;-34
2023/08/06 02:22:15;;;;;;;;;;;26.90;72.60;;;;;;5174516;27;19919;-34
2023/08/06 02:24:41;;;;;;;;;;;26.90;72.70;;;;;;5187993;27;19917;-34
2023/08/06 02:27:07;;;;;;;;;;;26.90;72.70;;;;;;5174042;27;19922;-34
2023/08/06 02:29:33;;;;;;;;;;;26.90;72.70;;;;;;5171084;27;20680;-34
2023/08/06 02:32:01;;;;;;;;;;;26.90;72.70;;;;;;5176662;27;19919;-34
2023/08/06 02:34:27;;;;;;;;;;;26.90;72.60;;;;;;5178398;27;19915;-34
2023/08/06 02:36:53;;;;;;;;;;;26.90;72.80;;;;;;5174340;27;19915;-34
2023/08/06 02:39:19;;;;;;;;;;;26.90;72.70;;;;;;5171097;27;19926;-34
2023/08/06 02:41:44;;;;;;;;;;;26.90;72.70;;;;;;5187352;27;19918;-34
2023/08/06 02:44:10;;;;;;;;;;;26.90;72.70;;;;;;5178624;27;19915;-34
2023/08/06 02:46:36;;;;;;;;;;;26.80;72.60;;;;;;5176586;27;19921;-34
2023/08/06 02:49:02;;;;;;;;;;;26.90;72.70;;;;;;5175760;27;19911;-34
2023/08/06 02:51:28;;;;;;;;;;;26.80;72.60;;;;;;5184321;27;19915;-34
2023/08/06 02:53:54;;;;;;;;;;;26.80;72.60;;;;;;5179755;27;19910;-34
2023/08/06 02:56:20;;;;;;;;;;;26.80;72.60;;;;;;5173021;27;19919;-34
2023/08/06 02:58:46;;;;;;;;;;;26.80;72.70;;;;;;5178768;27;19923;-34
2023/08/06 03:01:11;;;;;;;;;;;26.80;72.70;;;;;;5177295;27;19911;-34
2023/08/06 03:03:37;;;;;;;;;;;26.80;72.80;;;;;;5171209;27;19912;-34
2023/08/06 03:06:03;;;;;;;;;;;26.80;72.80;;;;;;5168975;27;19915;-34
2023/08/06 03:08:29;;;;;;;;;;;26.80;72.90;;;;;;5174047;27;19922;-34
2023/08/06 03:10:55;;;;;;;;;;;26.80;72.80;;;;;;5168224;27;19911;-34
2023/08/06 03:13:21;;;;;;;;;;;26.80;72.90;;;;;;5183558;27;19919;-34
2023/08/06 03:15:56;;;;;;;;;;;26.80;72.90;;;;;;5167809;27;19918;-34
2023/08/06 03:18:22;;;;;;;;;;;26.80;72.70;;;;;;5186293;27;19937;-34
2023/08/06 03:20:48;;;;;;;;;;;26.80;72.70;;;;;;5184687;27;19915;-34
2023/08/06 03:23:14;;;;;;;;;;;26.80;72.70;;;;;;5167658;27;19911;-34
2023/08/06 03:25:40;;;;;;;;;;;26.80;72.70;;;;;;5161520;27;19918;-34
2023/08/06 03:28:06;;;;;;;;;;;26.80;72.70;;;;;;5184210;27;20784;-33
2023/08/06 03:30:32;;;;;;;;;;;26.80;72.70;;;;;;5175159;27;19911;-33
2023/08/06 03:32:58;;;;;;;;;;;26.80;72.60;;;;;;5167987;27;19929;-34
2023/08/06 03:35:23;;;;;;;;;;;26.80;72.70;;;;;;5177531;27;19929;-34
2023/08/06 03:37:49;;;;;;;;;;;26.80;72.60;;;;;;5174729;27;19919;-34
2023/08/06 03:40:15;;;;;;;;;;;26.80;72.70;;;;;;5166149;27;19919;-34
2023/08/06 03:42:41;;;;;;;;;;;26.80;72.90;;;;;;5172676;27;19915;-34
2023/08/06 03:45:07;;;;;;;;;;;26.80;72.90;;;;;;5169882;27;19912;-33
2023/08/06 03:47:33;;;;;;;;;;;26.80;73.00;;;;;;5179735;27;19922;-33
2023/08/06 03:49:59;;;;;;;;;;;26.80;73.10;;;;;;5186679;27;19915;-33
2023/08/06 03:52:25;;;;;;;;;;;26.80;73.10;;;;;;5179739;27;19914;-34
2023/08/06 03:54:51;;;;;;;;;;;26.80;73.10;;;;;;5186210;27;19922;-34
2023/08/06 03:57:17;;;;;;;;;;;26.80;73.00;;;;;;5179648;27;19910;-34
2023/08/06 03:59:43;;;;;;;;;;;26.80;72.80;;;;;;5181311;27;19919;-34
2023/08/06 04:02:09;;;;;;;;;;;26.80;72.80;;;;;;5174647;27;19940;-34
2023/08/06 04:04:34;;;;;;;;;;;26.70;72.70;;;;;;5179162;27;19915;-33
2023/08/06 04:07:00;;;;;;;;;;;26.70;72.60;;;;;;5172500;27;19954;-34
2023/08/06 04:09:28;;;;;;;;;;;26.80;72.70;;;;;;5182975;27;19918;-33
2023/08/06 04:11:54;;;;;;;;;;;26.70;72.60;;;;;;5155261;27;19955;-34
2023/08/06 04:14:20;;;;;;;;;;;26.70;72.60;;;;;;5176340;27;19914;-34
2023/08/06 04:16:45;;;;;;;;;;;26.70;72.50;;;;;;5172869;27;19922;-34
2023/08/06 04:19:11;;;;;;;;;;;26.70;72.70;;;;;;5171154;27;19987;-34
2023/08/06 04:21:37;;;;;;;;;;;26.70;72.80;;;;;;5183443;27;19911;-34
2023/08/06 04:24:03;;;;;;;;;;;26.70;73.00;;;;;;5175229;27;19915;-34
2023/08/06 04:26:29;;;;;;;;;;;26.70;73.00;;;;;;5183766;27;19953;-34
2023/08/06 04:28:55;;;;;;;;;;;26.70;73.00;;;;;;5171338;27;19911;-34
2023/08/06 04:31:21;;;;;;;;;;;26.70;73.10;;;;;;5166920;27;19918;-34
2023/08/06 04:33:47;;;;;;;;;;;26.70;73.10;;;;;;5167119;27;19911;-34
2023/08/06 04:36:13;;;;;;;;;;;26.70;73.10;;;;;;5167412;27;19923;-34
2023/08/06 04:38:41;;;;;;;;;;;26.60;72.90;;;;;;5173276;27;19925;-34
2023/08/06 04:41:07;;;;;;;;;;;26.70;72.80;;;;;;5169209;27;19911;-34
2023/08/06 04:43:32;;;;;;;;;;;26.60;72.70;;;;;;5182412;27;19930;-34
2023/08/06 04:45:58;;;;;;;;;;;26.70;72.70;;;;;;5166601;27;19911;-34
2023/08/06 04:48:24;;;;;;;;;;;26.70;72.90;;;;;;5176909;27;19914;-35
2023/08/06 04:50:50;;;;;;;;;;;26.60;72.40;;;;;;5181601;27;19934;-34
2023/08/06 04:53:16;;;;;;;;;;;26.60;72.40;;;;;;5168046;27;19911;-34
2023/08/06 04:55:42;;;;;;;;;;;26.60;72.40;;;;;;5178058;27;20655;-34
2023/08/06 04:58:12;;;;;;;;;;;26.60;72.40;;;;;;5174158;27;19922;-34
2023/08/06 05:00:38;;;;;;;;;;;26.60;72.60;;;;;;5153127;27;19946;-34
2023/08/06 05:03:04;;;;;;;;;;;26.60;72.90;;;;;;5166135;27;19951;-34
2023/08/06 05:05:30;;;;;;;;;;;26.60;72.90;;;;;;5176793;27;19915;-33
2023/08/06 05:07:56;;;;;;;;;;;26.60;73.00;;;;;;5172645;27;19907;-34
2023/08/06 05:10:24;;;;;;;;;;;26.60;73.00;;;;;;5178918;27;19915;-33
2023/08/06 05:12:50;;;;;;;;;;;26.60;73.10;;;;;;5175963;27;19910;-34
2023/08/06 05:15:16;;;;;;;;;;;26.60;73.00;;;;;;5184828;27;19921;-33
2023/08/06 05:17:42;;;;;;;;;;;26.60;73.00;;;;;;5177154;27;19922;-34
2023/08/06 05:20:08;;;;;;;;;;;26.60;72.90;;;;;;5168393;27;19907;-34
2023/08/06 05:22:34;;;;;;;;;;;26.60;72.80;;;;;;5174712;27;19914;-34
2023/08/06 05:24:59;;;;;;;;;;;26.50;72.60;;;;;;5176863;27;20355;-34
2023/08/06 05:27:25;;;;;;;;;;;26.50;72.40;;;;;;5168453;27;19911;-33
2023/08/06 05:29:54;;;;;;;;;;;26.50;72.50;;;;;;5170421;27;20005;-34
2023/08/06 05:32:20;;;;;;;;;;;26.60;72.50;;;;;;5166395;27;19921;-34
2023/08/06 05:34:46;;;;;;;;;;;26.50;72.50;;;;;;5178830;27;19922;-33
2023/08/06 05:37:12;;;;;;;;;;;26.50;72.50;;;;;;5169719;27;19914;-34
2023/08/06 05:39:38;;;;;;;;;;;26.50;72.50;;;;;;5177861;27;19918;-34
2023/08/06 05:42:04;;;;;;;;;;;26.50;72.90;;;;;;5169076;27;19915;-34
2023/08/06 05:44:29;;;;;;;;;;;26.50;73.00;;;;;;5172975;27;19914;-34
2023/08/06 05:46:55;;;;;;;;;;;26.50;73.20;;;;;;5184212;27;19918;-34
2023/08/06 05:49:21;;;;;;;;;;;26.50;73.20;;;;;;5168645;27;20026;-34
2023/08/06 05:51:48;;;;;;;;;;;26.50;73.30;;;;;;5175654;27;19918;-34
2023/08/06 05:54:14;;;;;;;;;;;26.50;73.30;;;;;;5180003;27;19922;-34
2023/08/06 05:56:39;;;;;;;;;;;26.50;73.10;;;;;;5173480;27;19919;-34
2023/08/06 05:59:05;;;;;;;;;;;26.50;73.10;;;;;;5146392;27;19997;-34
2023/08/06 06:01:31;;;;;;;;;;;26.50;72.90;;;;;;5167113;27;19918;-34
2023/08/06 06:03:57;;;;;;;;;;;26.50;72.90;;;;;;5180434;27;20574;-34
2023/08/06 06:06:23;;;;;;;;;;;26.40;72.70;;;;;;5176263;27;19915;-34
2023/08/06 06:08:49;;;;;;;;;;;26.40;72.60;;;;;;5174521;27;19988;-34
2023/08/06 06:11:15;;;;;;;;;;;26.40;72.60;;;;;;5174235;27;19918;-34
2023/08/06 06:13:40;;;;;;;;;;;26.40;72.60;;;;;;5179099;27;19910;-34
2023/08/06 06:16:06;;;;;;;;;;;26.40;72.60;;;;;;5170410;27;19915;-34
2023/08/06 06:18:32;;;;;;;;;;;26.40;72.60;;;;;;5168694;27;19954;-33
2023/08/06 06:20:58;;;;;;;;;;;26.40;72.70;;;;;;5172610;27;19915;-33
2023/08/06 06:23:24;;;;;;;;;;;26.40;73.00;;;;;;5173546;27;20367;-34
2023/08/06 06:25:53;;;;;;;;;;;26.40;73.10;;;;;;5178204;27;19922;-34
2023/08/06 06:28:19;;;;;;;;;;;26.40;73.10;;;;;;5180603;27;20034;-33
2023/08/06 06:30:45;;;;;;;;;;;26.40;73.20;;;;;;5171510;27;19918;-33
2023/08/06 06:33:10;;;;;;;;;;;26.40;73.30;;;;;;5173065;27;19911;-34
2023/08/06 06:35:36;;;;;;;;;;;26.40;73.30;;;;;;5176272;27;19982;-34
2023/08/06 06:38:02;;;;;;;;;;;26.40;73.20;;;;;;5182596;27;19914;-34
2023/08/06 06:40:28;;;;;;;;;;;26.40;73.00;;;;;;5176688;27;19915;-34
2023/08/06 06:42:54;;;;;;;;;;;26.40;72.90;;;;;;5175502;27;19970;-34
2023/08/06 06:45:20;;;;;;;;;;;26.40;73.60;;;;;;5178923;27;20455;-33
2023/08/06 06:47:46;;;;;;;;;;;26.40;72.90;;;;;;5182373;27;20034;-34
2023/08/06 06:50:12;;;;;;;;;;;26.30;72.90;;;;;;5169310;27;19934;-34
2023/08/06 06:52:37;;;;;;;;;;;26.30;72.80;;;;;;5180483;27;19922;-34
2023/08/06 06:55:04;;;;;;;;;;;26.30;72.80;;;;;;5169070;27;19915;-34
2023/08/06 06:57:29;;;;;;;;;;;26.30;72.80;;;;;;5177568;27;19915;-34
2023/08/06 06:59:55;;;;;;;;;;;26.30;72.80;;;;;;5177451;27;19911;-34
2023/08/06 07:02:21;;;;;;;;;;;26.30;72.90;;;;;;5176840;27;19965;-34
2023/08/06 07:04:47;;;;;;;;;;;26.30;73.10;;;;;;5175735;27;19911;-33
2023/08/06 07:07:13;;;;;;;;;;;26.30;73.10;;;;;;5170929;27;19922;-33
2023/08/06 07:09:39;;;;;;;;;;;26.30;73.10;;;;;;5158209;27;19918;-34
2023/08/06 07:12:05;;;;;;;;;;;26.30;73.20;;;;;;5175992;27;19935;-34
2023/08/06 07:14:31;;;;;;;;;;;26.30;73.30;;;;;;5171581;27;19982;-34
2023/08/06 07:16:56;;;;;;;;;;;26.30;73.20;;;;;;5180050;27;19919;-43
2023/08/06 07:19:23;;;;;;;;;;;26.30;73.10;;;;;;5175999;27;19923;-33
2023/08/06 07:21:49;;;;;;;;;;;26.30;73.10;;;;;;5171274;27;19921;-33
2023/08/06 07:24:15;;;;;;;;;;;26.20;72.90;;;;;;5179462;27;19942;-34
2023/08/06 07:26:40;;;;;;;;;;;26.20;72.90;;;;;;5170718;27;19911;-34
2023/08/06 07:29:06;;;;;;;;;;;26.20;72.90;;;;;;5175404;27;20335;-34
2023/08/06 07:31:32;;;;;;;;;;;26.20;72.90;;;;;;5177541;27;20090;-34
2023/08/06 07:33:58;;;;;;;;;;;26.20;73.00;;;;;;5175413;27;19926;-34
2023/08/06 07:36:24;;;;;;;;;;;26.20;73.00;;;;;;5170053;27;19926;-34
2023/08/06 07:38:55;;;;;;;;;;;26.20;73.00;;;;;;5177441;27;19986;-34
2023/08/06 07:41:22;;;;;;;;;;;26.20;73.00;;;;;;5168239;27;19942;-34
2023/08/06 07:43:48;;;;;;;;;;;26.20;73.10;;;;;;5172781;27;20716;-33
2023/08/06 07:46:14;;;;;;;;;;;26.20;73.30;;;;;;5171011;27;20332;-33
2023/08/06 07:48:40;;;;;;;;;;;26.10;73.30;;;;;;5175956;27;19978;-34
2023/08/06 07:51:05;;;;;;;;;;;26.20;73.40;;;;;;5179774;27;20367;-34
2023/08/06 07:53:31;;;;;;;;;;;26.20;73.30;;;;;;5167762;27;19964;-34
2023/08/06 07:55:58;;;;;;;;;;;26.20;73.30;;;;;;5169609;27;19955;-33
2023/08/06 07:58:25;;;;;;;;;;;26.20;73.40;;;;;;5177358;27;19994;-33
2023/08/06 08:00:51;;;;;;;;;;;26.10;73.40;;;;;;5161556;27;19959;-33
2023/08/06 08:03:16;;;;;;;;;;;26.10;73.30;;;;;;5181457;27;19911;-34
2023/08/06 08:05:46;;;;;;;;;;;26.10;73.30;;;;;;5178400;27;19921;-34
2023/08/06 08:08:12;;;;;;;;;;;26.10;73.30;;;;;;5177049;27;19978;-34
2023/08/06 08:10:38;;;;;;;;;;;26.10;73.20;;;;;;5171133;27;19950;-33
2023/08/06 08:13:04;;;;;;;;;;;26.10;73.20;;;;;;5176221;27;19911;-34
2023/08/06 08:15:30;;;;;;;;;;;26.10;73.20;;;;;;5175512;27;19983;-34
2023/08/06 08:17:56;;;;;;;;;;;26.10;73.30;;;;;;5179244;27;19954;-34
2023/08/06 08:20:22;;;;;;;;;;;26.10;73.30;;;;;;5177032;27;19941;-33
2023/08/06 08:22:48;;;;;;;;;;;26.10;73.30;;;;;;5177833;27;19921;-33
2023/08/06 08:25:14;;;;;;;;;;;26.10;73.30;;;;;;5176204;27;19915;-34
2023/08/06 08:27:40;;;;;;;;;;;26.10;73.40;;;;;;5172899;27;19919;-34
2023/08/06 08:30:06;;;;;;;;;;;26.10;73.30;;;;;;5174905;27;19911;-34
2023/08/06 08:32:31;;;;;;;;;;;26.10;73.30;;;;;;5169921;27;19918;-33
2023/08/06 08:34:57;;;;;;;;;;;26.10;73.30;;;;;;5155519;27;19942;-34
2023/08/06 08:37:23;;;;;;;;;;;26.10;73.30;;;;;;5147296;27;19939;-33
2023/08/06 08:39:50;;;;;;;;;;;26.10;73.40;;;;;;5146453;27;19923;-34
2023/08/06 08:42:16;;;;;;;;;;;26.10;73.40;;;;;;5146912;27;19922;-34
2023/08/06 08:44:44;;;;;;;;;;;26.00;73.30;;;;;;5156841;27;19912;-34
2023/08/06 08:47:10;;;;;;;;;;;26.00;73.30;;;;;;5155857;27;19917;-33
2023/08/06 08:49:36;;;;;;;;;;;26.00;73.40;;;;;;5145470;27;19950;-33
2023/08/06 08:52:03;;;;;;;;;;;26.00;73.40;;;;;;5149539;27;19918;-33
2023/08/06 08:54:29;;;;;;;;;;;26.00;73.40;;;;;;5152576;27;19919;-34
2023/08/06 08:56:57;;;;;;;;;;;26.00;73.40;;;;;;5153741;27;19915;-33
2023/08/06 08:59:23;;;;;;;;;;;26.00;73.40;;;;;;5152819;27;19923;-33
2023/08/06 09:01:52;;;;;;;;;;;26.00;73.40;;;;;;5153475;27;20308;-33
2023/08/06 09:04:18;;;;;;;;;;;26.00;73.40;;;;;;5151621;27;19915;-33
2023/08/06 09:06:46;;;;;;;;;;;26.00;73.40;;;;;;5148790;27;19966;-34
2023/08/06 09:09:12;;;;;;;;;;;26.00;73.50;;;;;;5146950;27;19965;-34
2023/08/06 09:11:48;;;;;;;;;;;26.00;73.50;;;;;;5156623;27;19915;-33
2023/08/06 09:14:14;;;;;;;;;;;26.00;73.50;;;;;;5152940;27;20381;-34
2023/08/06 09:16:40;;;;;;;;;;;25.90;73.50;;;;;;5145682;27;20348;-34
2023/08/06 09:19:12;;;;;;;;;;;25.90;73.60;;;;;;5152566;27;20002;-33
2023/08/06 09:21:39;;;;;;;;;;;25.90;73.60;;;;;;5160485;27;19935;-34
2023/08/06 09:24:08;;;;;;;;;;;25.90;73.60;;;;;;5148186;27;19922;-33
2023/08/06 09:26:34;;;;;;;;;;;25.90;73.50;;;;;;5151006;27;19912;-34
2023/08/06 09:29:00;;;;;;;;;;;25.90;73.60;;;;;;5151903;27;19922;-33
2023/08/06 09:31:32;;;;;;;;;;;25.90;73.60;;;;;;5153438;27;19919;-33
2023/08/06 09:33:59;;;;;;;;;;;25.90;73.70;;;;;;5154590;27;19974;-34
2023/08/06 09:36:25;;;;;;;;;;;25.90;73.60;;;;;;5183421;27;19964;-34
2023/08/06 09:38:51;;;;;;;;;;;25.90;73.60;;;;;;5181994;27;19926;-34
2023/08/06 09:41:27;;;;;;;;;;;25.90;73.60;;;;;;5167223;27;19966;-34
2023/08/06 09:43:53;;;;;;;;;;;25.90;73.60;;;;;;5179520;27;19915;-33
2023/08/06 09:46:19;;;;;;;;;;;25.90;73.60;;;;;;5167378;27;19921;-34
2023/08/06 09:48:46;;;;;;;;;;;25.80;73.60;;;;;;5165771;27;19922;-34
2023/08/06 09:51:12;;;;;;;;;;;25.80;73.60;;;;;;5165753;27;20336;-33
2023/08/06 09:53:58;;;;;;;;;;;25.80;73.70;;;;;;5108019;28;19916;-33
2023/08/06 09:56:26;;;;;;;;;;;25.80;73.60;;;;;;5099325;28;19989;-34
2023/08/06 09:58:52;;;;;;;;;;;25.80;73.60;;;;;;5102930;28;19924;-34
2023/08/06 10:01:18;;;;;;;;;;;25.80;73.60;;;;;;5116466;28;19935;-34
2023/08/06 10:03:43;;;;;;;;;;;25.80;73.80;;;;;;5100421;28;19965;-34
2023/08/06 10:06:09;;;;;;;;;;;25.80;73.70;;;;;;5109683;28;19920;-34
2023/08/06 10:08:35;;;;;;;;;;;25.80;73.80;;;;;;5113652;28;19912;-33
2023/08/06 10:11:03;;;;;;;;;;;25.80;73.80;;;;;;5107927;28;19947;-34
2023/08/06 10:13:30;;;;;;;;;;;25.80;73.80;;;;;;5124838;28;19934;-34
2023/08/06 10:15:56;;;;;;;;;;;25.80;73.80;;;;;;5114845;28;19908;-34
2023/08/06 10:18:22;;;;;;;;;;;25.80;73.80;;;;;;5105292;28;20012;-34
2023/08/06 10:20:48;;;;;;;;;;;25.80;73.80;;;;;;5100989;28;19916;-33
2023/08/06 10:23:14;;;;;;;;;;;25.70;73.70;;;;;;5107500;28;19971;-34
2023/08/06 10:25:41;;;;;;;;;;;25.80;73.80;;;;;;5116756;28;19950;-34
2023/08/06 10:28:09;;;;;;;;;;;25.80;73.90;;;;;;5121788;28;19979;-34
2023/08/06 10:30:36;;;;;;;;;;;25.80;73.80;;;;;;5129063;27;20371;-33
2023/08/06 10:33:05;;;;;;;;;;;25.70;73.80;;;;;;5154646;27;19911;-33
2023/08/06 10:35:31;;;;;;;;;;;25.70;73.80;;;;;;5179057;27;19923;-34
2023/08/06 10:37:58;;;;;;;;;;;25.70;73.90;;;;;;5184884;27;19942;-34
2023/08/06 10:40:25;;;;;;;;;;;25.70;73.90;;;;;;5171684;27;19965;-34
2023/08/06 10:42:51;;;;;;;;;;;25.70;73.80;;;;;;5168617;27;19915;-33
2023/08/06 10:45:18;;;;;;;;;;;25.70;73.80;;;;;;5171169;27;20355;-33
2023/08/06 10:47:44;;;;;;;;;;;25.70;73.90;;;;;;5187855;27;19939;-35
2023/08/06 10:50:14;;;;;;;;;;;25.70;74.00;;;;;;5170831;27;19919;-34
2023/08/06 10:52:40;;;;;;;;;;;25.70;74.00;;;;;;5185431;27;19914;-34
2023/08/06 10:55:06;;;;;;;;;;;25.70;73.90;;;;;;5179024;27;19917;-34
2023/08/06 10:57:32;;;;;;;;;;;25.70;74.10;;;;;;5175264;27;19911;-33
2023/08/06 10:59:58;;;;;;;;;;;25.70;74.10;;;;;;5179962;27;19926;-34
2023/08/06 11:02:23;;;;;;;;;;;25.70;74.00;;;;;;5168566;27;20302;-33
2023/08/06 11:04:49;;;;;;;;;;;25.70;74.10;;;;;;5173999;27;19921;-34
2023/08/06 11:07:15;;;;;;;;;;;25.70;74.00;;;;;;5173747;27;19922;-33
2023/08/06 11:09:41;;;;;;;;;;;25.60;74.00;;;;;;5182940;27;20354;-34
2023/08/06 11:12:10;;;;;;;;;;;25.60;74.00;;;;;;5175992;27;19915;-34
2023/08/06 11:14:36;;;;;;;;;;;25.60;74.10;;;;;;5173014;27;19942;-33
2023/08/06 11:17:02;;;;;;;;;;;25.60;74.10;;;;;;5167823;27;19936;-34
2023/08/06 11:19:28;;;;;;;;;;;25.60;74.20;;;;;;5176219;27;19923;-33
2023/08/06 11:21:54;;;;;;;;;;;25.60;74.10;;;;;;5174743;27;20420;-34
2023/08/06 11:24:20;;;;;;;;;;;25.60;74.10;;;;;;5170751;27;19915;-33
2023/08/06 11:26:46;;;;;;;;;;;25.60;74.10;;;;;;5174930;27;19935;-34
2023/08/06 11:29:12;;;;;;;;;;;25.60;74.20;;;;;;5178155;27;19911;-35
2023/08/06 11:31:38;;;;;;;;;;;25.60;74.20;;;;;;5178193;27;19974;-34
2023/08/06 11:34:03;;;;;;;;;;;25.60;74.20;;;;;;5171150;27;19922;-33
2023/08/06 11:36:30;;;;;;;;;;;25.60;74.20;;;;;;5183693;27;20020;-33
2023/08/06 11:38:57;;;;;;;;;;;25.60;74.20;;;;;;5176727;27;20287;-33
2023/08/06 11:41:23;;;;;;;;;;;25.60;74.20;;;;;;5183853;27;19954;-34
2023/08/06 11:43:48;;;;;;;;;;;25.60;74.20;;;;;;5175155;27;19920;-33
2023/08/06 11:46:14;;;;;;;;;;;25.60;74.20;;;;;;5176273;27;19918;-33
2023/08/06 11:48:53;;;;;;;;;;;25.60;74.20;;;;;;5186476;27;19915;-34
2023/08/06 11:51:20;;;;;;;;;;;25.60;74.20;;;;;;5179910;27;19917;-33
2023/08/06 11:53:49;;;;;;;;;;;25.60;74.20;;;;;;5162267;27;19921;-34
2023/08/06 11:56:16;;;;;;;;;;;25.50;74.20;;;;;;5175127;27;19912;-34
2023/08/06 11:58:42;;;;;;;;;;;25.60;74.30;;;;;;5181242;27;20394;-33
2023/08/06 12:01:08;;;;;;;;;;;25.60;74.20;;;;;;5168627;27;19907;-33
2023/08/06 12:03:39;;;;;;;;;;;25.60;74.30;;;;;;5175197;27;19982;-33
2023/08/06 12:06:05;;;;;;;;;;;25.50;74.30;;;;;;5175958;27;19938;-34
2023/08/06 12:08:30;;;;;;;;;;;25.50;74.20;;;;;;5183288;27;19915;-33
2023/08/06 12:10:56;;;;;;;;;;;25.50;74.30;;;;;;5178453;27;19914;-34
2023/08/06 12:13:22;;;;;;;;;;;25.50;75.00;;;;;;5183184;27;19919;-33
2023/08/06 12:15:49;;;;;;;;;;;25.50;74.40;;;;;;5171094;27;19911;-33
2023/08/06 12:18:14;;;;;;;;;;;25.50;74.20;;;;;;5166403;27;19942;-34
2023/08/06 12:20:40;;;;;;;;;;;25.50;74.30;;;;;;5167947;27;20026;-33
2023/08/06 12:23:06;;;;;;;;;;;25.50;74.40;;;;;;5175907;27;19917;-34
2023/08/06 12:25:32;;;;;;;;;;;25.50;74.30;;;;;;5166324;27;19919;-33
2023/08/06 12:27:58;;;;;;;;;;;25.50;74.40;;;;;;5172291;27;19911;-33
2023/08/06 12:30:24;;;;;;;;;;;25.50;74.30;;;;;;5169655;27;19922;-33
2023/08/06 12:32:51;;;;;;;;;;;25.50;74.30;;;;;;5172290;27;20625;-34
2023/08/06 12:35:17;;;;;;;;;;;25.50;74.40;;;;;;5176848;27;19918;-34
2023/08/06 12:37:44;;;;;;;;;;;25.50;74.40;;;;;;5182896;27;19968;-34
2023/08/06 12:40:10;;;;;;;;;;;25.50;74.30;;;;;;5184420;27;19922;-33
2023/08/06 12:42:35;;;;;;;;;;;25.50;74.40;;;;;;5174808;27;19911;-34
2023/08/06 12:45:02;;;;;;;;;;;25.50;74.50;;;;;;5174784;27;20001;-33
2023/08/06 12:47:28;;;;;;;;;;;25.50;75.20;;;;;;5176981;27;20431;-34
2023/08/06 12:49:54;;;;;;;;;;;25.50;74.50;;;;;;5177131;27;19911;-34
2023/08/06 12:52:20;;;;;;;;;;;25.50;74.50;;;;;;5170250;27;20371;-34
2023/08/06 12:54:46;;;;;;;;;;;25.50;74.40;;;;;;5183212;27;20286;-34
2023/08/06 12:57:11;;;;;;;;;;;25.50;74.50;;;;;;5178667;27;19946;-33
2023/08/06 12:59:37;;;;;;;;;;;25.50;74.40;;;;;;5184298;27;20533;-34
2023/08/06 13:02:03;;;;;;;;;;;25.50;74.40;;;;;;5170332;27;19915;-34
2023/08/06 13:04:30;;;;;;;;;;;25.50;74.40;;;;;;5177493;27;19921;-34
2023/08/06 13:06:56;;;;;;;;;;;25.50;74.40;;;;;;5174500;27;19966;-34
2023/08/06 13:09:22;;;;;;;;;;;25.50;74.40;;;;;;5167454;27;19918;-35
2023/08/06 13:11:50;;;;;;;;;;;25.50;74.40;;;;;;5177160;27;19974;-33
2023/08/06 13:14:15;;;;;;;;;;;25.50;74.50;;;;;;5167835;27;19915;-34
2023/08/06 13:16:42;;;;;;;;;;;25.50;74.80;;;;;;5171394;27;19917;-33
2023/08/06 13:19:08;;;;;;;;;;;25.50;74.90;;;;;;5179996;27;20025;-34
2023/08/06 13:21:34;;;;;;;;;;;25.50;75.00;;;;;;5174031;27;20424;-34
2023/08/06 13:24:01;;;;;;;;;;;25.50;74.90;;;;;;5168785;27;19915;-33
2023/08/06 13:26:27;;;;;;;;;;;25.50;75.00;;;;;;5175954;27;19918;-33
2023/08/06 13:28:53;;;;;;;;;;;25.50;74.90;;;;;;5177028;27;20409;-34
2023/08/06 13:31:19;;;;;;;;;;;25.50;74.90;;;;;;5183612;27;19960;-34
2023/08/06 13:33:45;;;;;;;;;;;25.50;74.70;;;;;;5173345;27;20404;-34
2023/08/06 13:36:11;;;;;;;;;;;25.50;74.80;;;;;;5166860;27;19910;-34
2023/08/06 13:38:37;;;;;;;;;;;25.60;74.80;;;;;;5168190;27;19982;-34
2023/08/06 13:41:03;;;;;;;;;;;25.60;74.80;;;;;;5166716;27;19915;-34
2023/08/06 13:43:29;;;;;;;;;;;25.60;74.90;;;;;;5167107;27;20462;-34
2023/08/06 13:45:55;;;;;;;;;;;25.60;75.00;;;;;;5166651;27;19915;-34
2023/08/06 13:48:20;;;;;;;;;;;25.60;74.90;;;;;;5170973;27;19911;-34
2023/08/06 13:50:46;;;;;;;;;;;25.60;74.90;;;;;;5176530;27;19989;-33
2023/08/06 13:53:12;;;;;;;;;;;25.60;74.90;;;;;;5178338;27;19922;-34
2023/08/06 13:55:38;;;;;;;;;;;25.60;75.00;;;;;;5181071;27;19915;-34
2023/08/06 13:58:04;;;;;;;;;;;25.60;75.00;;;;;;5178972;27;19919;-34
2023/08/06 14:00:30;;;;;;;;;;;25.60;75.00;;;;;;5178147;27;19930;-33
2023/08/06 14:02:56;;;;;;;;;;;25.60;75.00;;;;;;5182275;27;19912;-34
2023/08/06 14:05:22;;;;;;;;;;;25.60;75.10;;;;;;5177531;27;19915;-34
2023/08/06 14:07:47;;;;;;;;;;;25.60;75.10;;;;;;5175268;27;20001;-34
2023/08/06 14:10:14;;;;;;;;;;;25.70;75.20;;;;;;5177177;27;19922;-34
2023/08/06 14:12:40;;;;;;;;;;;25.60;75.40;;;;;;5183934;27;19915;-34